sensor_id;sensor_type;location;lat;lon;timestamp;temperature;humidity
4556;DHT22;2290;48.674;9.018;2023-11-19T00:01:40;7.80;99.90
4556;DHT22;2290;48.674;9.018;2023-11-19T00:04:05;7.80;99.90
4556;DHT22;2290;48.674;9.018;2023-11-19T00:06:31;7.80;99.90
4556;DHT22;2290;48.674;9.018;2023-11-19T00:08:57;7.90;99.90
4556;DHT22;2290;48.674;9.018;2023-11-19T00:11:22;7.90;99.90
4556;DHT22;2290;48.674;9.018;2023-11-19T00:13:48;8.00;99.90
4556;DHT22;2290;48.674;9.018;2023-11-19T00:16:13;8.00;99.90
4556;DHT22;2290;48.674;9.018;2023-11-19T00:18:39;8.00;99.90
4556;DHT22;2290;48.674;9.018;2023-11-19T00:21:05;8.00;99.90
4556;DHT22;2290;48.674;9.018;2023-11-19T00:23:31;8.00;99.90
4556;DHT22;2290;48.674;9.018;2023-11-19T00:25:58;8.00;99.90
4556;DHT22;2290;48.674;9.018;2023-11-19T00:28:25;8.10;99.90
4556;DHT22;2290;48.674;9.018;2023-11-19T00:30:50;8.10;99.90
4556;DHT22;2290;48.674;9.018;2023-11-19T00:33:16;8.10;99.90
4556;DHT22;2290;48.674;9.018;2023-11-19T00:35:41;8.10;99.90
4556;DHT22;2290;48.674;9.018;2023-11-19T00:38:08;8.10;99.90
4556;DHT22;2290;48.674;9.018;2023-11-19T00:40:33;8.10;99.90
4556;DHT22;2290;48.674;9.018;2023-11-19T00:42:59;8.10;99.90
4556;DHT22;2290;48.674;9.018;2023-11-19T00:45:26;8.20;99.90
4556;DHT22;2290;48.674;9.018;2023-11-19T00:47:52;8.30;99.90
4556;DHT22;2290;48.674;9.018;2023-11-19T00:50:18;8.30;99.90
4556;DHT22;2290;48.674;9.018;2023-11-19T00:52:43;8.30;99.90
4556;DHT22;2290;48.674;9.018;2023-11-19T00:55:09;8.40;99.90
4556;DHT22;2290;48.674;9.018;2023-11-19T00:57:36;8.50;99.90
4556;DHT22;2290;48.674;9.018;2023-11-19T01:00:02;8.50;99.90
4556;DHT22;2290;48.674;9.018;2023-11-19T01:02:34;8.50;99.90
4556;DHT22;2290;48.674;9.018;2023-11-19T01:05:00;8.60;99.90
4556;DHT22;2290;48.674;9.018;2023-11-19T01:07:25;8.60;99.90
4556;DHT22;2290;48.674;9.018;2023-11-19T01:09:52;8.60;99.90
4556;DHT22;2290;48.674;9.018;2023-11-19T01:12:17;8.60;99.90
4556;DHT22;2290;48.674;9.018;2023-11-19T01:14:43;8.70;99.90
4556;DHT22;2290;48.674;9.018;2023-11-19T01:17:10;8.70;99.90
4556;DHT22;2290;48.674;9.018;2023-11-19T01:19:35;8.70;99.90
4556;DHT22;2290;48.674;9.018;2023-11-19T01:22:02;8.80;99.90
4556;DHT22;2290;48.674;9.018;2023-11-19T01:24:28;8.80;99.90
4556;DHT22;2290;48.674;9.018;2023-11-19T01:26:56;8.80;99.90
4556;DHT22;2290;48.674;9.018;2023-11-19T01:29:23;8.70;99.90
4556;DHT22;2290;48.674;9.018;2023-11-19T01:31:48;8.80;99.90
4556;DHT22;2290;48.674;9.018;2023-11-19T01:34:16;8.80;99.90
4556;DHT22;2290;48.674;9.018;2023-11-19T01:36:42;8.80;99.90
4556;DHT22;2290;48.674;9.018;2023-11-19T01:39:07;8.80;99.90
4556;DHT22;2290;48.674;9.018;2023-11-19T01:41:36;8.80;99.90
4556;DHT22;2290;48.674;9.018;2023-11-19T01:44:05;8.80;99.90
4556;DHT22;2290;48.674;9.018;2023-11-19T01:46:31;8.90;99.90
4556;DHT22;2290;48.674;9.018;2023-11-19T01:49:02;8.90;99.90
4556;DHT22;2290;48.674;9.018;2023-11-19T01:51:28;8.90;99.90
4556;DHT22;2290;48.674;9.018;2023-11-19T01:53:54;9.00;99.90
4556;DHT22;2290;48.674;9.018;2023-11-19T01:56:21;9.00;99.90
4556;DHT22;2290;48.674;9.018;2023-11-19T01:58:48;9.10;99.90
4556;DHT22;2290;48.674;9.018;2023-11-19T02:01:15;9.20;99.90
4556;DHT22;2290;48.674;9.018;2023-11-19T02:03:40;9.20;99.90
4556;DHT22;2290;48.674;9.018;2023-11-19T02:06:06;9.20;99.90
4556;DHT22;2290;48.674;9.018;2023-11-19T02:08:32;9.40;99.90
4556;DHT22;2290;48.674;9.018;2023-11-19T02:10:58;9.50;99.90
4556;DHT22;2290;48.674;9.018;2023-11-19T02:13:25;9.50;99.90
4556;DHT22;2290;48.674;9.018;2023-11-19T02:15:51;9.60;99.90
4556;DHT22;2290;48.674;9.018;2023-11-19T02:18:22;9.60;99.90
4556;DHT22;2290;48.674;9.018;2023-11-19T02:20:49;9.60;99.90
4556;DHT22;2290;48.674;9.018;2023-11-19T02:23:15;9.60;99.90
4556;DHT22;2290;48.674;9.018;2023-11-19T02:25:41;9.70;99.90
4556;DHT22;2290;48.674;9.018;2023-11-19T02:28:08;9.70;99.90
4556;DHT22;2290;48.674;9.018;2023-11-19T02:30:38;9.70;99.90
4556;DHT22;2290;48.674;9.018;2023-11-19T02:33:03;9.70;99.90
4556;DHT22;2290;48.674;9.018;2023-11-19T02:35:31;9.70;99.90
4556;DHT22;2290;48.674;9.018;2023-11-19T02:37:57;9.80;99.90
4556;DHT22;2290;48.674;9.018;2023-11-19T02:40:24;9.70;99.90
4556;DHT22;2290;48.674;9.018;2023-11-19T02:42:51;9.70;99.90
4556;DHT22;2290;48.674;9.018;2023-11-19T02:45:18;9.80;99.90
4556;DHT22;2290;48.674;9.018;2023-11-19T02:47:43;9.70;99.90
4556;DHT22;2290;48.674;9.018;2023-11-19T02:50:10;9.80;99.90
4556;DHT22;2290;48.674;9.018;2023-11-19T02:52:44;9.80;99.90
4556;DHT22;2290;48.674;9.018;2023-11-19T02:55:12;9.80;99.90
4556;DHT22;2290;48.674;9.018;2023-11-19T02:57:43;9.90;99.90
4556;DHT22;2290;48.674;9.018;2023-11-19T03:00:19;9.80;99.90
4556;DHT22;2290;48.674;9.018;2023-11-19T03:02:49;9.90;99.90
4556;DHT22;2290;48.674;9.018;2023-11-19T03:05:24;9.90;99.90
4556;DHT22;2290;48.674;9.018;2023-11-19T03:07:50;9.90;99.90
4556;DHT22;2290;48.674;9.018;2023-11-19T03:10:15;9.80;99.90
4556;DHT22;2290;48.674;9.018;2023-11-19T03:12:42;9.90;99.90
4556;DHT22;2290;48.674;9.018;2023-11-19T03:15:08;9.90;99.90
4556;DHT22;2290;48.674;9.018;2023-11-19T03:17:36;9.80;99.90
4556;DHT22;2290;48.674;9.018;2023-11-19T03:20:04;9.80;99.90
4556;DHT22;2290;48.674;9.018;2023-11-19T03:22:32;9.90;99.90
4556;DHT22;2290;48.674;9.018;2023-11-19T03:24:59;9.90;99.90
4556;DHT22;2290;48.674;9.018;2023-11-19T03:27:25;9.90;99.90
4556;DHT22;2290;48.674;9.018;2023-11-19T03:29:50;9.90;99.90
4556;DHT22;2290;48.674;9.018;2023-11-19T03:32:16;9.90;99.90
4556;DHT22;2290;48.674;9.018;2023-11-19T03:34:41;9.90;99.90
4556;DHT22;2290;48.674;9.018;2023-11-19T03:37:07;9.90;99.90
4556;DHT22;2290;48.674;9.018;2023-11-19T03:39:32;10.10;99.90
4556;DHT22;2290;48.674;9.018;2023-11-19T03:41:58;10.00;99.90
4556;DHT22;2290;48.674;9.018;2023-11-19T03:44:25;10.00;99.90
4556;DHT22;2290;48.674;9.018;2023-11-19T03:46:51;10.00;99.90
4556;DHT22;2290;48.674;9.018;2023-11-19T03:49:17;10.00;99.90
4556;DHT22;2290;48.674;9.018;2023-11-19T03:51:42;10.00;99.90
4556;DHT22;2290;48.674;9.018;2023-11-19T03:54:08;10.00;99.90
4556;DHT22;2290;48.674;9.018;2023-11-19T03:56:36;10.00;99.90
4556;DHT22;2290;48.674;9.018;2023-11-19T03:59:02;10.00;99.90
4556;DHT22;2290;48.674;9.018;2023-11-19T04:01:28;10.00;99.90
4556;DHT22;2290;48.674;9.018;2023-11-19T04:03:53;10.00;99.90
4556;DHT22;2290;48.674;9.018;2023-11-19T04:06:21;10.00;99.90
4556;DHT22;2290;48.674;9.018;2023-11-19T04:08:47;10.10;99.90
4556;DHT22;2290;48.674;9.018;2023-11-19T04:11:12;10.10;99.90
4556;DHT22;2290;48.674;9.018;2023-11-19T04:13:38;10.00;99.90
4556;DHT22;2290;48.674;9.018;2023-11-19T04:16:04;10.10;99.90
4556;DHT22;2290;48.674;9.018;2023-11-19T04:18:30;10.00;99.90
4556;DHT22;2290;48.674;9.018;2023-11-19T04:20:55;10.00;99.90
4556;DHT22;2290;48.674;9.018;2023-11-19T04:23:21;10.00;99.90
4556;DHT22;2290;48.674;9.018;2023-11-19T04:25:47;10.00;99.90
4556;DHT22;2290;48.674;9.018;2023-11-19T04:28:12;10.00;99.90
4556;DHT22;2290;48.674;9.018;2023-11-19T04:30:38;10.00;99.90
4556;DHT22;2290;48.674;9.018;2023-11-19T04:33:03;10.10;99.90
4556;DHT22;2290;48.674;9.018;2023-11-19T04:35:29;10.10;99.90
4556;DHT22;2290;48.674;9.018;2023-11-19T04:37:55;10.10;99.90
4556;DHT22;2290;48.674;9.018;2023-11-19T04:40:23;10.10;99.90
4556;DHT22;2290;48.674;9.018;2023-11-19T04:42:48;10.10;99.90
4556;DHT22;2290;48.674;9.018;2023-11-19T04:45:14;10.10;99.90
4556;DHT22;2290;48.674;9.018;2023-11-19T04:47:42;10.20;99.90
4556;DHT22;2290;48.674;9.018;2023-11-19T04:50:07;10.10;99.90
4556;DHT22;2290;48.674;9.018;2023-11-19T04:52:37;10.10;99.90
4556;DHT22;2290;48.674;9.018;2023-11-19T04:55:05;10.10;99.90
4556;DHT22;2290;48.674;9.018;2023-11-19T04:57:31;10.10;99.90
4556;DHT22;2290;48.674;9.018;2023-11-19T04:59:58;10.10;99.90
4556;DHT22;2290;48.674;9.018;2023-11-19T05:02:23;10.10;99.90
4556;DHT22;2290;48.674;9.018;2023-11-19T05:04:49;10.00;99.90
4556;DHT22;2290;48.674;9.018;2023-11-19T05:07:14;10.10;99.90
4556;DHT22;2290;48.674;9.018;2023-11-19T05:09:40;10.00;99.90
4556;DHT22;2290;48.674;9.018;2023-11-19T05:12:06;10.00;99.90
4556;DHT22;2290;48.674;9.018;2023-11-19T05:14:35;10.00;99.90
4556;DHT22;2290;48.674;9.018;2023-11-19T05:17:01;10.00;99.90
4556;DHT22;2290;48.674;9.018;2023-11-19T05:19:26;10.00;99.90
4556;DHT22;2290;48.674;9.018;2023-11-19T05:21:52;10.10;99.90
4556;DHT22;2290;48.674;9.018;2023-11-19T05:24:17;10.10;99.90
4556;DHT22;2290;48.674;9.018;2023-11-19T05:26:43;10.10;99.90
4556;DHT22;2290;48.674;9.018;2023-11-19T05:29:08;10.10;99.90
4556;DHT22;2290;48.674;9.018;2023-11-19T05:31:34;10.10;99.90
4556;DHT22;2290;48.674;9.018;2023-11-19T05:34:00;10.10;99.90
4556;DHT22;2290;48.674;9.018;2023-11-19T05:36:25;10.10;99.90
4556;DHT22;2290;48.674;9.018;2023-11-19T05:38:51;10.10;99.90
4556;DHT22;2290;48.674;9.018;2023-11-19T05:41:16;10.20;99.90
4556;DHT22;2290;48.674;9.018;2023-11-19T05:43:42;10.10;99.90
4556;DHT22;2290;48.674;9.018;2023-11-19T05:46:07;10.20;99.90
4556;DHT22;2290;48.674;9.018;2023-11-19T05:48:34;10.20;99.90
4556;DHT22;2290;48.674;9.018;2023-11-19T05:50:59;10.20;99.90
4556;DHT22;2290;48.674;9.018;2023-11-19T05:53:25;10.20;99.90
4556;DHT22;2290;48.674;9.018;2023-11-19T05:55:51;10.10;99.90
4556;DHT22;2290;48.674;9.018;2023-11-19T05:58:26;10.20;99.90
4556;DHT22;2290;48.674;9.018;2023-11-19T06:00:54;10.20;99.90
4556;DHT22;2290;48.674;9.018;2023-11-19T06:03:21;10.20;99.90
4556;DHT22;2290;48.674;9.018;2023-11-19T06:05:48;10.20;99.90
4556;DHT22;2290;48.674;9.018;2023-11-19T06:08:14;10.10;99.90
4556;DHT22;2290;48.674;9.018;2023-11-19T06:10:40;10.20;99.90
4556;DHT22;2290;48.674;9.018;2023-11-19T06:13:07;10.20;99.90
4556;DHT22;2290;48.674;9.018;2023-11-19T06:15:35;10.20;99.90
4556;DHT22;2290;48.674;9.018;2023-11-19T06:18:03;10.20;99.90
4556;DHT22;2290;48.674;9.018;2023-11-19T06:20:34;10.30;99.90
4556;DHT22;2290;48.674;9.018;2023-11-19T06:23:01;10.20;99.90
4556;DHT22;2290;48.674;9.018;2023-11-19T06:25:27;10.30;99.90
4556;DHT22;2290;48.674;9.018;2023-11-19T06:27:54;10.20;99.90
4556;DHT22;2290;48.674;9.018;2023-11-19T06:30:21;10.30;99.90
4556;DHT22;2290;48.674;9.018;2023-11-19T06:32:46;10.20;99.90
4556;DHT22;2290;48.674;9.018;2023-11-19T06:35:12;10.30;99.90
4556;DHT22;2290;48.674;9.018;2023-11-19T06:37:39;10.30;99.90
4556;DHT22;2290;48.674;9.018;2023-11-19T06:40:07;10.30;99.90
4556;DHT22;2290;48.674;9.018;2023-11-19T06:42:35;10.30;99.90
4556;DHT22;2290;48.674;9.018;2023-11-19T06:45:01;10.30;99.90
4556;DHT22;2290;48.674;9.018;2023-11-19T06:47:27;10.30;99.90
4556;DHT22;2290;48.674;9.018;2023-11-19T06:49:54;10.30;99.90
4556;DHT22;2290;48.674;9.018;2023-11-19T06:52:20;10.40;99.90
4556;DHT22;2290;48.674;9.018;2023-11-19T06:54:46;10.30;99.90
4556;DHT22;2290;48.674;9.018;2023-11-19T06:57:12;10.30;99.90
4556;DHT22;2290;48.674;9.018;2023-11-19T06:59:39;10.30;99.90
4556;DHT22;2290;48.674;9.018;2023-11-19T07:02:05;10.30;99.90
4556;DHT22;2290;48.674;9.018;2023-11-19T07:04:32;10.30;99.90
4556;DHT22;2290;48.674;9.018;2023-11-19T07:06:58;10.30;99.90
4556;DHT22;2290;48.674;9.018;2023-11-19T07:09:25;10.40;99.90
4556;DHT22;2290;48.674;9.018;2023-11-19T07:11:51;10.50;99.90
4556;DHT22;2290;48.674;9.018;2023-11-19T07:14:18;10.40;99.90
4556;DHT22;2290;48.674;9.018;2023-11-19T07:16:44;10.40;99.90
4556;DHT22;2290;48.674;9.018;2023-11-19T07:19:11;10.40;99.90
4556;DHT22;2290;48.674;9.018;2023-11-19T07:21:41;10.40;99.90
4556;DHT22;2290;48.674;9.018;2023-11-19T07:24:10;10.40;99.90
4556;DHT22;2290;48.674;9.018;2023-11-19T07:26:36;10.50;99.90
4556;DHT22;2290;48.674;9.018;2023-11-19T07:29:02;10.50;99.90
4556;DHT22;2290;48.674;9.018;2023-11-19T07:31:28;10.50;99.90
4556;DHT22;2290;48.674;9.018;2023-11-19T07:33:54;10.60;99.90
4556;DHT22;2290;48.674;9.018;2023-11-19T07:36:19;10.60;99.90
4556;DHT22;2290;48.674;9.018;2023-11-19T07:38:46;10.60;99.90
4556;DHT22;2290;48.674;9.018;2023-11-19T07:41:13;10.60;99.90
4556;DHT22;2290;48.674;9.018;2023-11-19T07:43:44;10.60;99.90
4556;DHT22;2290;48.674;9.018;2023-11-19T07:46:13;10.60;99.90
4556;DHT22;2290;48.674;9.018;2023-11-19T07:48:39;10.60;99.90
4556;DHT22;2290;48.674;9.018;2023-11-19T07:51:05;10.70;99.90
4556;DHT22;2290;48.674;9.018;2023-11-19T07:53:31;10.60;99.90
4556;DHT22;2290;48.674;9.018;2023-11-19T07:55:56;10.60;99.90
4556;DHT22;2290;48.674;9.018;2023-11-19T07:58:22;10.70;99.90
4556;DHT22;2290;48.674;9.018;2023-11-19T08:00:47;10.70;99.90
4556;DHT22;2290;48.674;9.018;2023-11-19T08:03:13;10.60;99.90
4556;DHT22;2290;48.674;9.018;2023-11-19T08:05:40;10.60;99.90
4556;DHT22;2290;48.674;9.018;2023-11-19T08:08:06;10.70;99.90
4556;DHT22;2290;48.674;9.018;2023-11-19T08:10:32;10.70;99.90
4556;DHT22;2290;48.674;9.018;2023-11-19T08:12:58;10.70;99.90
4556;DHT22;2290;48.674;9.018;2023-11-19T08:15:24;10.70;99.90
4556;DHT22;2290;48.674;9.018;2023-11-19T08:17:49;10.70;99.90
4556;DHT22;2290;48.674;9.018;2023-11-19T08:20:15;10.70;99.90
4556;DHT22;2290;48.674;9.018;2023-11-19T08:22:40;10.80;99.90
4556;DHT22;2290;48.674;9.018;2023-11-19T08:25:06;10.80;99.90
4556;DHT22;2290;48.674;9.018;2023-11-19T08:27:33;10.90;99.90
4556;DHT22;2290;48.674;9.018;2023-11-19T08:30:00;10.90;99.90
4556;DHT22;2290;48.674;9.018;2023-11-19T08:32:26;10.90;99.90
4556;DHT22;2290;48.674;9.018;2023-11-19T08:34:54;11.00;99.90
4556;DHT22;2290;48.674;9.018;2023-11-19T08:37:21;10.90;99.90
4556;DHT22;2290;48.674;9.018;2023-11-19T08:39:50;11.10;99.90
4556;DHT22;2290;48.674;9.018;2023-11-19T08:42:16;11.30;99.90
4556;DHT22;2290;48.674;9.018;2023-11-19T08:44:43;11.50;99.90
4556;DHT22;2290;48.674;9.018;2023-11-19T08:47:12;11.50;99.90
4556;DHT22;2290;48.674;9.018;2023-11-19T08:49:38;11.50;99.90
4556;DHT22;2290;48.674;9.018;2023-11-19T08:52:04;11.60;99.90
4556;DHT22;2290;48.674;9.018;2023-11-19T08:54:36;11.70;99.90
4556;DHT22;2290;48.674;9.018;2023-11-19T08:57:03;11.80;99.90
4556;DHT22;2290;48.674;9.018;2023-11-19T08:59:29;11.80;99.90
4556;DHT22;2290;48.674;9.018;2023-11-19T09:01:55;11.90;99.90
4556;DHT22;2290;48.674;9.018;2023-11-19T09:04:21;12.00;99.90
4556;DHT22;2290;48.674;9.018;2023-11-19T09:06:48;12.00;99.90
4556;DHT22;2290;48.674;9.018;2023-11-19T09:09:14;12.00;99.90
4556;DHT22;2290;48.674;9.018;2023-11-19T09:11:39;12.00;99.90
4556;DHT22;2290;48.674;9.018;2023-11-19T09:14:05;12.10;99.90
4556;DHT22;2290;48.674;9.018;2023-11-19T09:16:31;12.30;99.90
4556;DHT22;2290;48.674;9.018;2023-11-19T09:18:57;12.40;99.90
4556;DHT22;2290;48.674;9.018;2023-11-19T09:21:27;12.50;99.90
4556;DHT22;2290;48.674;9.018;2023-11-19T09:23:55;12.50;99.90
4556;DHT22;2290;48.674;9.018;2023-11-19T09:26:20;12.40;99.90
4556;DHT22;2290;48.674;9.018;2023-11-19T09:28:46;12.40;99.90
4556;DHT22;2290;48.674;9.018;2023-11-19T09:31:15;12.40;99.90
4556;DHT22;2290;48.674;9.018;2023-11-19T09:33:41;12.40;99.90
4556;DHT22;2290;48.674;9.018;2023-11-19T09:36:08;12.60;99.90
4556;DHT22;2290;48.674;9.018;2023-11-19T09:38:36;12.50;99.90
4556;DHT22;2290;48.674;9.018;2023-11-19T09:41:06;12.60;99.90
4556;DHT22;2290;48.674;9.018;2023-11-19T09:43:35;12.60;99.90
4556;DHT22;2290;48.674;9.018;2023-11-19T09:46:09;12.50;99.90
4556;DHT22;2290;48.674;9.018;2023-11-19T09:48:37;12.50;99.90
4556;DHT22;2290;48.674;9.018;2023-11-19T09:51:12;12.60;99.90
4556;DHT22;2290;48.674;9.018;2023-11-19T09:53:39;12.50;99.90
4556;DHT22;2290;48.674;9.018;2023-11-19T09:56:11;12.50;99.90
4556;DHT22;2290;48.674;9.018;2023-11-19T09:58:37;12.60;99.90
4556;DHT22;2290;48.674;9.018;2023-11-19T10:01:06;12.60;99.90
4556;DHT22;2290;48.674;9.018;2023-11-19T10:03:37;12.50;99.90
4556;DHT22;2290;48.674;9.018;2023-11-19T10:06:09;12.60;99.90
4556;DHT22;2290;48.674;9.018;2023-11-19T10:08:37;12.60;99.90
4556;DHT22;2290;48.674;9.018;2023-11-19T10:11:06;12.80;99.90
4556;DHT22;2290;48.674;9.018;2023-11-19T10:13:34;12.90;99.90
4556;DHT22;2290;48.674;9.018;2023-11-19T10:16:07;13.00;99.90
4556;DHT22;2290;48.674;9.018;2023-11-19T10:18:32;13.00;99.90
4556;DHT22;2290;48.674;9.018;2023-11-19T10:21:06;13.20;99.90
4556;DHT22;2290;48.674;9.018;2023-11-19T10:23:45;13.20;99.90
4556;DHT22;2290;48.674;9.018;2023-11-19T10:26:13;13.30;99.90
4556;DHT22;2290;48.674;9.018;2023-11-19T10:28:41;13.30;99.90
4556;DHT22;2290;48.674;9.018;2023-11-19T10:31:09;13.40;99.90
4556;DHT22;2290;48.674;9.018;2023-11-19T10:33:35;13.50;99.90
4556;DHT22;2290;48.674;9.018;2023-11-19T10:36:01;13.60;99.90
4556;DHT22;2290;48.674;9.018;2023-11-19T10:38:27;13.70;99.90
4556;DHT22;2290;48.674;9.018;2023-11-19T10:40:54;13.70;99.90
4556;DHT22;2290;48.674;9.018;2023-11-19T10:43:22;13.90;99.90
4556;DHT22;2290;48.674;9.018;2023-11-19T10:45:49;14.10;99.90
4556;DHT22;2290;48.674;9.018;2023-11-19T10:48:15;14.20;99.90
4556;DHT22;2290;48.674;9.018;2023-11-19T10:50:44;14.20;99.90
4556;DHT22;2290;48.674;9.018;2023-11-19T10:53:12;14.10;99.90
4556;DHT22;2290;48.674;9.018;2023-11-19T10:55:41;14.10;99.90
4556;DHT22;2290;48.674;9.018;2023-11-19T10:58:10;14.00;99.90
4556;DHT22;2290;48.674;9.018;2023-11-19T11:03:20;14.00;99.90
4556;DHT22;2290;48.674;9.018;2023-11-19T11:05:48;14.00;99.90
4556;DHT22;2290;48.674;9.018;2023-11-19T11:08:14;13.90;99.90
4556;DHT22;2290;48.674;9.018;2023-11-19T11:10:55;14.00;99.90
4556;DHT22;2290;48.674;9.018;2023-11-19T11:13:24;14.00;99.90
4556;DHT22;2290;48.674;9.018;2023-11-19T11:15:52;14.00;99.90
4556;DHT22;2290;48.674;9.018;2023-11-19T11:18:21;14.10;99.90
4556;DHT22;2290;48.674;9.018;2023-11-19T11:20:53;14.10;99.90
4556;DHT22;2290;48.674;9.018;2023-11-19T11:26:38;14.20;99.90
4556;DHT22;2290;48.674;9.018;2023-11-19T11:29:17;14.20;99.90
4556;DHT22;2290;48.674;9.018;2023-11-19T11:39:57;13.90;99.90
4556;DHT22;2290;48.674;9.018;2023-11-19T11:50:20;13.90;99.90
4556;DHT22;2290;48.674;9.018;2023-11-19T11:55:27;13.80;99.90
4556;DHT22;2290;48.674;9.018;2023-11-19T11:57:56;13.80;99.90
4556;DHT22;2290;48.674;9.018;2023-11-19T12:00:30;13.90;99.90
4556;DHT22;2290;48.674;9.018;2023-11-19T12:02:59;14.10;99.90
4556;DHT22;2290;48.674;9.018;2023-11-19T12:05:25;14.20;99.90
4556;DHT22;2290;48.674;9.018;2023-11-19T12:07:57;14.20;99.90
4556;DHT22;2290;48.674;9.018;2023-11-19T12:10:25;14.20;99.90
4556;DHT22;2290;48.674;9.018;2023-11-19T12:12:57;14.20;99.90
4556;DHT22;2290;48.674;9.018;2023-11-19T12:15:26;14.20;99.90
4556;DHT22;2290;48.674;9.018;2023-11-19T12:17:53;14.20;99.90
4556;DHT22;2290;48.674;9.018;2023-11-19T12:20:21;14.20;99.90
4556;DHT22;2290;48.674;9.018;2023-11-19T12:22:49;14.10;99.90
4556;DHT22;2290;48.674;9.018;2023-11-19T12:25:16;14.10;99.90
4556;DHT22;2290;48.674;9.018;2023-11-19T12:27:52;14.30;99.90
4556;DHT22;2290;48.674;9.018;2023-11-19T12:30:25;14.30;99.90
4556;DHT22;2290;48.674;9.018;2023-11-19T12:32:52;14.40;99.90
4556;DHT22;2290;48.674;9.018;2023-11-19T12:35:20;14.60;99.90
4556;DHT22;2290;48.674;9.018;2023-11-19T12:37:48;14.70;99.90
4556;DHT22;2290;48.674;9.018;2023-11-19T12:40:21;14.80;99.90
4556;DHT22;2290;48.674;9.018;2023-11-19T12:42:54;15.10;99.90
4556;DHT22;2290;48.674;9.018;2023-11-19T12:45:21;15.20;99.90
4556;DHT22;2290;48.674;9.018;2023-11-19T12:47:49;15.10;99.90
4556;DHT22;2290;48.674;9.018;2023-11-19T12:50:18;15.10;99.90
4556;DHT22;2290;48.674;9.018;2023-11-19T12:53:05;15.00;99.90
4556;DHT22;2290;48.674;9.018;2023-11-19T12:55:31;14.90;99.90
4556;DHT22;2290;48.674;9.018;2023-11-19T12:57:58;15.00;99.90
4556;DHT22;2290;48.674;9.018;2023-11-19T13:00:26;15.10;99.90
4556;DHT22;2290;48.674;9.018;2023-11-19T13:02:56;15.10;99.90
4556;DHT22;2290;48.674;9.018;2023-11-19T13:05:27;14.90;99.90
4556;DHT22;2290;48.674;9.018;2023-11-19T13:08:04;14.80;99.90
4556;DHT22;2290;48.674;9.018;2023-11-19T13:10:31;14.60;99.90
4556;DHT22;2290;48.674;9.018;2023-11-19T13:13:07;14.80;99.90
4556;DHT22;2290;48.674;9.018;2023-11-19T13:15:38;14.80;99.90
4556;DHT22;2290;48.674;9.018;2023-11-19T13:18:06;14.80;99.90
4556;DHT22;2290;48.674;9.018;2023-11-19T13:20:32;14.90;99.90
4556;DHT22;2290;48.674;9.018;2023-11-19T13:23:03;15.20;99.90
4556;DHT22;2290;48.674;9.018;2023-11-19T13:25:31;15.40;99.90
4556;DHT22;2290;48.674;9.018;2023-11-19T13:28:00;15.40;99.90
4556;DHT22;2290;48.674;9.018;2023-11-19T13:30:27;15.20;99.90
4556;DHT22;2290;48.674;9.018;2023-11-19T13:32:53;15.20;99.90
4556;DHT22;2290;48.674;9.018;2023-11-19T13:35:20;15.30;99.90
4556;DHT22;2290;48.674;9.018;2023-11-19T13:37:50;15.40;99.90
4556;DHT22;2290;48.674;9.018;2023-11-19T13:40:17;15.50;99.90
4556;DHT22;2290;48.674;9.018;2023-11-19T13:42:43;15.50;99.90
4556;DHT22;2290;48.674;9.018;2023-11-19T13:45:09;15.60;99.90
4556;DHT22;2290;48.674;9.018;2023-11-19T13:47:38;15.80;99.90
4556;DHT22;2290;48.674;9.018;2023-11-19T13:50:10;15.80;99.90
4556;DHT22;2290;48.674;9.018;2023-11-19T13:52:38;15.70;99.90
4556;DHT22;2290;48.674;9.018;2023-11-19T13:55:07;15.80;99.90
4556;DHT22;2290;48.674;9.018;2023-11-19T13:57:44;16.20;99.90
4556;DHT22;2290;48.674;9.018;2023-11-19T14:00:11;16.70;99.90
4556;DHT22;2290;48.674;9.018;2023-11-19T14:02:42;17.70;99.90
4556;DHT22;2290;48.674;9.018;2023-11-19T14:05:10;17.90;99.90
4556;DHT22;2290;48.674;9.018;2023-11-19T14:07:39;17.90;99.90
4556;DHT22;2290;48.674;9.018;2023-11-19T14:10:05;17.30;99.90
4556;DHT22;2290;48.674;9.018;2023-11-19T14:12:34;17.20;99.90
4556;DHT22;2290;48.674;9.018;2023-11-19T14:15:17;18.60;99.90
4556;DHT22;2290;48.674;9.018;2023-11-19T14:17:43;19.90;99.90
4556;DHT22;2290;48.674;9.018;2023-11-19T14:20:10;20.60;99.90
4556;DHT22;2290;48.674;9.018;2023-11-19T14:22:43;21.50;99.90
4556;DHT22;2290;48.674;9.018;2023-11-19T14:25:10;22.30;99.90
4556;DHT22;2290;48.674;9.018;2023-11-19T14:27:40;22.50;99.90
4556;DHT22;2290;48.674;9.018;2023-11-19T14:30:07;22.60;99.90
4556;DHT22;2290;48.674;9.018;2023-11-19T14:32:37;22.30;99.90
4556;DHT22;2290;48.674;9.018;2023-11-19T14:35:07;22.10;99.90
4556;DHT22;2290;48.674;9.018;2023-11-19T14:37:33;21.20;99.90
4556;DHT22;2290;48.674;9.018;2023-11-19T14:40:00;20.70;99.90
4556;DHT22;2290;48.674;9.018;2023-11-19T14:42:30;19.90;99.90
4556;DHT22;2290;48.674;9.018;2023-11-19T14:44:55;19.60;99.90
4556;DHT22;2290;48.674;9.018;2023-11-19T14:47:23;20.30;99.90
4556;DHT22;2290;48.674;9.018;2023-11-19T14:49:49;20.60;99.90
4556;DHT22;2290;48.674;9.018;2023-11-19T14:52:15;20.10;99.90
4556;DHT22;2290;48.674;9.018;2023-11-19T14:54:42;20.90;99.90
4556;DHT22;2290;48.674;9.018;2023-11-19T14:57:08;22.10;99.90
4556;DHT22;2290;48.674;9.018;2023-11-19T14:59:37;21.80;99.90
4556;DHT22;2290;48.674;9.018;2023-11-19T15:02:06;20.90;99.90
4556;DHT22;2290;48.674;9.018;2023-11-19T15:04:32;19.50;99.90
4556;DHT22;2290;48.674;9.018;2023-11-19T15:07:00;19.10;99.90
4556;DHT22;2290;48.674;9.018;2023-11-19T15:09:27;18.10;99.90
4556;DHT22;2290;48.674;9.018;2023-11-19T15:11:55;16.90;99.90
4556;DHT22;2290;48.674;9.018;2023-11-19T15:14:21;16.40;99.90
4556;DHT22;2290;48.674;9.018;2023-11-19T15:16:48;15.70;99.90
4556;DHT22;2290;48.674;9.018;2023-11-19T15:19:17;15.40;99.90
4556;DHT22;2290;48.674;9.018;2023-11-19T15:21:45;15.10;99.90
4556;DHT22;2290;48.674;9.018;2023-11-19T15:24:11;14.80;99.90
4556;DHT22;2290;48.674;9.018;2023-11-19T15:26:38;14.40;99.90
4556;DHT22;2290;48.674;9.018;2023-11-19T15:29:04;14.00;99.90
4556;DHT22;2290;48.674;9.018;2023-11-19T15:31:30;13.70;99.90
4556;DHT22;2290;48.674;9.018;2023-11-19T15:33:58;13.40;99.90
4556;DHT22;2290;48.674;9.018;2023-11-19T15:36:24;13.30;99.90
4556;DHT22;2290;48.674;9.018;2023-11-19T15:38:52;13.10;99.90
4556;DHT22;2290;48.674;9.018;2023-11-19T15:41:18;13.00;99.90
4556;DHT22;2290;48.674;9.018;2023-11-19T15:43:44;12.90;99.90
4556;DHT22;2290;48.674;9.018;2023-11-19T15:46:12;12.90;99.90
4556;DHT22;2290;48.674;9.018;2023-11-19T15:48:38;12.80;99.90
4556;DHT22;2290;48.674;9.018;2023-11-19T15:51:05;12.70;99.90
4556;DHT22;2290;48.674;9.018;2023-11-19T15:53:31;12.60;99.90
4556;DHT22;2290;48.674;9.018;2023-11-19T15:55:58;12.60;99.90
4556;DHT22;2290;48.674;9.018;2023-11-19T15:58:24;12.60;99.90
4556;DHT22;2290;48.674;9.018;2023-11-19T16:00:50;12.40;99.90
4556;DHT22;2290;48.674;9.018;2023-11-19T16:03:15;12.40;99.90
4556;DHT22;2290;48.674;9.018;2023-11-19T16:05:44;12.40;99.90
4556;DHT22;2290;48.674;9.018;2023-11-19T16:08:10;12.40;99.90
4556;DHT22;2290;48.674;9.018;2023-11-19T16:10:38;12.30;99.90
4556;DHT22;2290;48.674;9.018;2023-11-19T16:13:14;12.30;99.90
4556;DHT22;2290;48.674;9.018;2023-11-19T16:15:40;12.20;99.90
4556;DHT22;2290;48.674;9.018;2023-11-19T16:18:06;12.20;99.90
4556;DHT22;2290;48.674;9.018;2023-11-19T16:20:36;12.10;99.90
4556;DHT22;2290;48.674;9.018;2023-11-19T16:23:19;12.10;99.90
4556;DHT22;2290;48.674;9.018;2023-11-19T16:25:45;12.00;99.90
4556;DHT22;2290;48.674;9.018;2023-11-19T16:28:10;12.20;99.90
4556;DHT22;2290;48.674;9.018;2023-11-19T16:30:36;12.00;99.90